Terminal Aerodrome Forecast
Issued by NWS Austin/San Antonio, TX

Home | Current Version | Previous Version | Text Only | Print | Product List | Glossary On
Versions: 1 2 3 4 5 6 7 8 9 10 11 12 13 14 15 16 17 18 19 20 21 22 23 24 25 26 27
000
FTUS44 KEWX 271738
TAFSAT
TAF
KSAT 271738Z 2718/2824 06005KT P6SM VCSH SCT020 BKN050
     FM272000 09007KT P6SM VCTS BKN050CB
      TEMPO 2722/2802 -TSRA BKN025CB
     FM280300 09005KT P6SM BKN025
     FM280600 VRB04KT P6SM BKN018=

USA.gov is the U.S. government's official web portal to all federal, state and local government web resources and services.